Data for 04/29/2008

Time Sea-Level Adjusted Pressure Absolute Pressure Temperature Relative Humidity Dew Point   
(mb) (inHg) (mb) (inHg) (C) (F) (%) (C) (F)
00:05 1012 29.88 842 24.86 12.2 53.9 30 -4.9 23.2
00:10 1012 29.88 842 24.86 12.3 54.1 29 -5.3 22.5
00:15 1012 29.88 842 24.86 12.5 54.4 29 -5 23
00:20 1012 29.88 842 24.86 12.2 54 29 -5.1 22.8
00:25 1012 29.88 842 24.86 12.3 54.2 28 -5.5 22.2
00:30 1013 29.91 842 24.86 12.6 54.6 28 -5.5 22.1
00:35 1013 29.91 842 24.86 12.6 54.7 28 -5.6 21.9
00:40 1013 29.91 842 24.86 12.6 54.7 28 -5.6 22
00:45 1013 29.91 842 24.86 12.4 54.2 28 -5.4 22.2
00:50 1013 29.91 842 24.86 12.1 53.8 30 -4.8 23.4
00:55 1013 29.91 842 24.86 11.5 52.6 33 -4.3 24.3
01:00 1013 29.91 842 24.86 11 51.7 34 -4.3 24.3
01:05 1013 29.91 842 24.86 10.8 51.4 33 -4.8 23.3
01:10 1013 29.91 842 24.86 11.2 52.1 30 -5.6 22
01:15 1013 29.91 842 24.86 11.8 53.2 28 -6.1 21.1
01:20 1013 29.91 842 24.86 12.2 53.9 28 -5.6 21.9
01:25 1013 29.91 842 24.86 11.4 52.6 32 -4.7 23.5
01:30 1013 29.91 842 24.86 10.8 51.5 33 -4.8 23.3
01:35 1013 29.91 842 24.86 10.4 50.6 35 -4.6 23.8
01:40 1013 29.91 842 24.86 10 49.9 35 -4.7 23.5
01:45 1013 29.91 842 24.86 10 50.1 34 -4.9 23.1
01:50 1013 29.91 842 24.86 10.3 50.5 33 -5.1 22.7
01:55 1013 29.91 842 24.86 10.4 50.8 33 -5 23.1
02:00 1012 29.88 842 24.86 10.2 50.3 35 -4.7 23.5
02:05 1012 29.88 842 24.86 9.8 49.7 35 -4.9 23.1
02:10 1012 29.88 842 24.86 9.9 49.8 34 -5.1 22.9
02:15 1012 29.88 842 24.86 9.9 49.9 34 -5 23
02:20 1012 29.88 841 24.83 9.8 49.6 35 -5.1 22.9
02:25 1012 29.88 841 24.83 9.7 49.4 35 -5.1 22.7
02:30 1012 29.88 841 24.83 9.6 49.3 35 -5.1 22.9
02:35 1012 29.88 841 24.83 9.3 48.8 36 -5 23
02:40 1012 29.88 841 24.83 9 48.2 36 -5.3 22.5
02:45 1012 29.88 841 24.83 9.1 48.3 36 -5.3 22.5
02:50 1012 29.88 841 24.83 9.1 48.3 35 -5.5 22.1
02:55 1012 29.88 841 24.83 9.1 48.4 35 -5.6 21.9
03:00 1012 29.88 841 24.83 9.1 48.5 35 -5.4 22.3
03:05 1012 29.88 841 24.83 8.8 47.9 36 -5.5 22
03:10 1012 29.88 841 24.83 8.9 48 35 -5.8 21.6
03:15 1012 29.88 841 24.83 9.1 48.4 34 -5.8 21.5
03:20 1012 29.88 841 24.83 9.1 48.3 35 -5.6 21.9
03:25 1011 29.85 841 24.83 8.6 47.5 36 -5.4 22.2
03:30 1011 29.85 841 24.83 8.4 47.2 36 -5.7 21.7
03:35 1011 29.85 841 24.83 8.4 47.2 35 -6.1 21
03:40 1011 29.85 841 24.83 8.7 47.6 35 -6 21.2
03:45 1011 29.85 841 24.83 8.5 47.4 35 -5.9 21.4
03:50 1011 29.85 840 24.81 8.5 47.4 35 -6.2 20.9
03:55 1011 29.85 840 24.81 8.7 47.7 35 -6 21.3
04:00 1011 29.85 840 24.81 8.6 47.5 35 -5.8 21.5
04:05 1011 29.85 840 24.81 8.5 47.3 36 -5.7 21.7
04:10 1011 29.85 840 24.81 8.4 47.2 37 -5.4 22.3
04:15 1011 29.85 840 24.81 8.3 46.9 38 -5.1 22.8
04:20 1011 29.85 840 24.81 8.1 46.5 39 -5.1 22.8
04:25 1011 29.85 840 24.81 8 46.5 38 -5.3 22.5
04:30 1011 29.85 840 24.81 8.1 46.5 39 -4.9 23.1
04:35 1011 29.85 840 24.81 7.8 46 41 -4.7 23.5
04:40 1011 29.85 840 24.81 7.6 45.6 40 -5.1 22.8
04:45 1011 29.85 840 24.81 7.8 46 39 -5.4 22.3
04:50 1011 29.85 840 24.81 8 46.4 39 -5 23
04:55 1011 29.85 840 24.81 8 46.4 38 -5.3 22.4
05:00 1010 29.83 840 24.81 8.1 46.6 38 -5.3 22.5
05:05 1010 29.83 840 24.81 8.1 46.5 38 -5.3 22.4
05:10 1010 29.83 840 24.81 8.1 46.5 39 -5 23.1
05:15 1010 29.83 840 24.81 7.9 46.2 40 -4.9 23.1
05:20 1010 29.83 839 24.78 7.9 46.2 40 -4.9 23.2
05:25 1010 29.83 839 24.78 7.7 45.9 40 -5.1 22.8
05:30 1010 29.83 839 24.78 7.8 46.1 39 -5.2 22.7
05:35 1010 29.83 839 24.78 7.9 46.3 39 -5.1 22.8
05:40 1010 29.83 839 24.78 8 46.3 39 -5 22.9
05:45 1010 29.83 839 24.78 8 46.3 39 -5 22.9
05:50 1010 29.83 839 24.78 7.9 46.2 40 -5 22.9
05:55 1010 29.83 839 24.78 7.9 46.1 41 -4.7 23.6
06:00 1010 29.83 839 24.78 7.8 46 40 -4.9 23.2
06:05 1010 29.83 839 24.78 8.1 46.5 39 -5.1 22.9
06:10 1010 29.83 839 24.78 8.2 46.7 40 -4.6 23.8
06:15 1010 29.83 839 24.78 8.1 46.6 40 -4.6 23.7
06:20 1010 29.83 839 24.78 8.5 47.4 37 -5.4 22.2
06:25 1010 29.83 839 24.78 8.7 47.6 37 -5.2 22.7
06:30 1009 29.8 839 24.78 8.6 47.5 37 -5.3 22.4
06:35 1009 29.8 839 24.78 8.7 47.7 36 -5.6 21.9
06:40 1009 29.8 838 24.75 9 48.2 35 -5.8 21.6
06:45 1009 29.8 838 24.75 9.2 48.5 35 -5.4 22.2
06:50 1009 29.8 838 24.75 9 48.2 36 -5.4 22.3
06:55 1009 29.8 838 24.75 8.9 48.1 36 -5.2 22.6
07:00 1009 29.8 838 24.75 9.1 48.4 35 -5.4 22.4
07:05 1009 29.8 838 24.75 9.4 48.8 35 -5.2 22.7
07:10 1009 29.8 838 24.75 9.5 49.1 35 -5.1 22.8
07:15 1009 29.8 838 24.75 9.7 49.5 34 -5.2 22.7
07:20 1009 29.8 838 24.75 10 49.9 34 -5.1 22.9
07:25 1009 29.8 838 24.75 10.2 50.3 34 -5 23
07:30 1009 29.8 838 24.75 10.4 50.7 34 -4.7 23.5
07:35 1009 29.8 838 24.75 10.4 50.7 35 -4.5 23.9
07:40 1009 29.8 838 24.75 10.6 51.2 34 -4.4 24.2
07:45 1008 29.77 838 24.75 11 51.8 34 -4.4 24.2
07:50 1008 29.77 837 24.72 11.3 52.4 33 -4.3 24.2
07:55 1008 29.77 837 24.72 11.7 53.1 32 -4.3 24.3
08:00 1008 29.77 837 24.72 12.1 53.7 32 -4.2 24.4
08:05 1008 29.77 837 24.72 12.3 54.1 32 -3.8 25.1
08:10 1008 29.77 837 24.72 12.3 54.1 32 -3.8 25.1
08:15 1008 29.77 837 24.72 12.6 54.7 31 -4.1 24.6
08:20 1008 29.77 837 24.72 13.3 55.9 30 -3.9 24.9
08:25 1008 29.77 837 24.72 13.6 56.5 29 -3.9 25
08:30 1008 29.77 837 24.72 14.1 57.3 28 -3.8 25.1
08:35 1008 29.77 837 24.72 14.5 58.2 28 -3.7 25.4
08:40 1008 29.77 837 24.72 14.9 58.8 29 -2.8 26.9
08:45 1008 29.77 837 24.72 14.3 57.7 30 -2.9 26.8
08:50 1008 29.77 837 24.72 13.9 57 31 -2.9 26.8
08:55 1007 29.74 837 24.72 13.7 56.7 31 -2.8 26.9
09:00 1007 29.74 837 24.72 14.2 57.5 30 -2.9 26.8
09:05 1007 29.74 836 24.69 14.2 57.6 31 -2.5 27.5
09:10 1007 29.74 836 24.69 14.5 58.1 31 -2.5 27.5
09:15 1007 29.74 836 24.69 14.4 57.9 32 -2.1 28.2
09:20 1007 29.74 836 24.69 14.7 58.5 31 -2.2 28.1
09:25 1007 29.74 836 24.69 15.1 59.2 31 -1.6 29.1
09:30 1007 29.74 836 24.69 15.3 59.6 30 -1.9 28.6
09:35 1007 29.74 836 24.69 14.7 58.5 33 -1.2 29.8
09:40 1007 29.74 836 24.69 14.7 58.4 33 -1.5 29.4
09:45 1007 29.74 836 24.69 14.9 58.7 33 -1.3 29.7
09:50 1007 29.74 836 24.69 14.3 57.7 34 -1.4 29.5
09:55 1007 29.74 836 24.69 14.1 57.4 34 -1.6 29.1
10:00 1007 29.74 836 24.69 14.4 57.9 34 -1.4 29.5
10:05 1007 29.74 836 24.69 13.9 57 33 -1.9 28.6
10:10 1006 29.71 836 24.69 13.6 56.4 34 -1.8 28.7
10:15 1006 29.71 835 24.66 14.2 57.5 33 -1.8 28.8
10:20 1006 29.71 835 24.66 14.6 58.3 33 -1.5 29.3
10:25 1006 29.71 835 24.66 15.1 59.2 32 -1.5 29.3
10:30 1006 29.71 835 24.66 16 60.7 31 -1.1 30.1
10:35 1006 29.71 835 24.66 15.9 60.7 30 -1.7 28.9
10:40 1006 29.71 835 24.66 15.8 60.5 30 -1.7 29
10:45 1006 29.71 835 24.66 16.2 61.2 30 -1.4 29.5
10:50 1006 29.71 835 24.66 16.7 62.1 29 -1.4 29.4
10:55 1006 29.71 835 24.66 17.1 62.8 28 -1.4 29.5
11:00 1006 29.71 835 24.66 17.6 63.6 28 -1.3 29.7
11:05 1006 29.71 835 24.66 17.8 64 27 -1.3 29.7
11:10 1005 29.68 835 24.66 18.2 64.8 26 -1.4 29.5
11:15 1005 29.68 835 24.66 18.6 65.4 25 -1.8 28.7
11:20 1005 29.68 835 24.66 19 66.1 23 -2.7 27.1
11:25 1005 29.68 834 24.63 19.7 67.5 17 -5.5 22.1
11:30 1005 29.68 834 24.63 20.3 68.6 17 -5.2 22.6
11:35 1005 29.68 834 24.63 20.7 69.2 18 -4.2 24.4
11:40 1005 29.68 834 24.63 20.6 69.1 19 -3.9 24.9
11:45 1005 29.68 834 24.63 20.5 68.9 18 -4.7 23.6
11:50 1005 29.68 834 24.63 19.7 67.4 19 -4.6 23.8
11:55 1005 29.68 834 24.63 19.9 67.9 18 -5.1 22.9
12:00 1005 29.68 834 24.63 20.3 68.5 18 -4.7 23.5
12:05 1005 29.68 834 24.63 20 67.9 18 -4.9 23.2
12:10 1005 29.68 834 24.63 19.8 67.6 18 -5.1 22.8
12:15 1004 29.65 834 24.63 19.6 67.3 18 -5.3 22.4
12:20 1004 29.65 834 24.63 19.6 67.3 19 -4.4 24
12:25 1004 29.65 834 24.63 19.6 67.3 18 -5.5 22.2
12:30 1004 29.65 833 24.6 19.8 67.6 17 -5.7 21.8
12:35 1004 29.65 833 24.6 19.6 67.3 18 -5.6 22
12:40 1004 29.65 833 24.6 19.7 67.4 16 -6.8 19.8
12:45 1004 29.65 833 24.6 19.9 67.8 18 -5 22.9
12:50 1004 29.65 833 24.6 20.5 69 16 -6.3 20.6
12:55 1004 29.65 833 24.6 20.3 68.5 16 -6.3 20.7
13:00 1004 29.65 833 24.6 20.3 68.5 16 -6.6 20.1
13:05 1004 29.65 833 24.6 20.4 68.6 16 -5.8 21.5
13:10 1003 29.62 833 24.6 20.2 68.3 15 -7.1 19.3
13:15 1003 29.62 833 24.6 20.4 68.7 14 -7.7 18.1
13:20 1003 29.62 833 24.6 20.6 69 15 -6.5 20.4
13:25 1003 29.62 833 24.6 20.6 69.1 15 -7 19.5
13:30 1003 29.62 832 24.57 20.8 69.4 14 -7.8 18
13:35 1003 29.62 832 24.57 20.5 68.9 14 -7.8 18
13:40 1003 29.62 832 24.57 20.4 68.8 14 -7.5 18.5
13:45 1003 29.62 832 24.57 20.5 68.9 13 -8.2 17.2
13:50 1003 29.62 832 24.57 20.5 68.9 14 -8.2 17.3
13:55 1003 29.62 832 24.57 20.9 69.6 13 -8.4 16.9
14:00 1003 29.62 832 24.57 20.3 68.6 13 -9 15.7
14:05 1003 29.62 832 24.57 20.3 68.6 13 -9 15.8
14:10 1003 29.62 832 24.57 20.2 68.4 12 -10.4 13.3
14:15 1003 29.62 832 24.57 20.5 69 12 -9.4 15.1
14:20 1003 29.62 832 24.57 20.4 68.7 13 -9.2 15.4
14:25 1003 29.62 832 24.57 20.6 69.2 12 -9.6 14.7
14:30 1003 29.62 832 24.57 20.5 68.9 12 -9.6 14.7
14:35 1003 29.62 832 24.57 20.5 68.9 12 -9.8 14.4
14:40 1003 29.62 832 24.57 20.3 68.6 11 -10.5 13.1
14:45 1003 29.62 832 24.57 20.1 68.3 12 -9.8 14.3
14:50 1003 29.62 832 24.57 20.1 68.1 13 -9.1 15.6
14:55 1003 29.62 832 24.57 20 68 13 -9 15.8
15:00 1003 29.62 832 24.57 20.2 68.4 13 -9.2 15.5
15:05 1003 29.62 832 24.57 19.9 67.9 13 -9.1 15.6
15:10 1002 29.59 832 24.57 20 68 13 -8.8 16.1
15:15 1003 29.62 832 24.57 19.9 67.9 14 -8.4 16.8
15:20 1002 29.59 832 24.57 20.2 68.3 14 -8.3 17.1
15:25 1002 29.59 832 24.57 20.2 68.4 14 -8 17.5
15:30 1002 29.59 831 24.54 20.1 68.3 13 -8.7 16.4
15:35 1002 29.59 831 24.54 20.2 68.3 13 -8.8 16.2
15:40 1002 29.59 831 24.54 20 68.1 13 -8.6 16.5
15:45 1002 29.59 831 24.54 20.1 68.2 14 -8.2 17.2
15:50 1002 29.59 831 24.54 20.2 68.3 14 -8.1 17.5
15:55 1002 29.59 831 24.54 20.3 68.6 14 -8.3 17.1
16:00 1002 29.59 831 24.54 20.2 68.4 15 -7.2 19
16:05 1002 29.59 831 24.54 20.1 68.1 15 -7.5 18.5
16:10 1002 29.59 831 24.54 20.1 68.2 14 -8.3 17.1
16:15 1002 29.59 831 24.54 20 68 14 -8.2 17.2
16:20 1002 29.59 831 24.54 19.9 67.9 14 -8.2 17.2
16:25 1002 29.59 831 24.54 19.9 67.7 14 -7.9 17.7
16:30 1002 29.59 831 24.54 20.1 68.1 14 -7.9 17.7
16:35 1001 29.56 831 24.54 19.9 67.8 15 -7.5 18.6
16:40 1001 29.56 831 24.54 19.9 67.7 15 -7.7 18.2
16:45 1001 29.56 831 24.54 19.8 67.7 14 -8 17.6
16:50 1001 29.56 831 24.54 19.9 67.8 15 -7.8 18
16:55 1001 29.56 830 24.51 19.8 67.7 15 -7.5 18.5
17:00 1001 29.56 830 24.51 20 67.9 14 -8.4 16.9
17:05 1001 29.56 830 24.51 19.7 67.5 15 -7.8 18
17:10 1001 29.56 830 24.51 19.8 67.6 14 -8.3 17.1
17:15 1001 29.56 830 24.51 19.7 67.4 14 -8.6 16.5
17:20 1001 29.56 830 24.51 19.9 67.9 14 -8 17.6
17:25 1001 29.56 830 24.51 19.9 67.7 14 -8.7 16.3
17:30 1001 29.56 830 24.51 20 68 14 -8.2 17.3
17:35 1001 29.56 830 24.51 19.7 67.5 14 -8 17.6
17:40 1001 29.56 830 24.51 19.6 67.2 14 -8.3 17.1
17:45 1001 29.56 830 24.51 19.3 66.7 15 -7.9 17.9
17:50 1001 29.56 830 24.51 19 66.2 16 -7.6 18.2
17:55 1001 29.56 830 24.51 18.9 66.1 15 -7.9 17.7
18:00 1001 29.56 830 24.51 18.9 65.9 15 -8.1 17.4
18:05 1001 29.56 830 24.51 18.8 65.8 15 -8.1 17.4
18:10 1001 29.56 830 24.51 18.7 65.6 15 -8.1 17.4
18:15 1001 29.56 830 24.51 18.6 65.5 16 -7.5 18.5
18:20 1001 29.56 830 24.51 18.5 65.2 16 -7.6 18.4
18:25 1001 29.56 830 24.51 18.4 65 18 -6.5 20.3
18:30 1001 29.56 830 24.51 18.3 65 16 -8.1 17.4
18:35 1001 29.56 830 24.51 18.3 64.9 16 -8 17.6
18:40 1001 29.56 830 24.51 18.2 64.7 17 -7.5 18.4
18:45 1001 29.56 830 24.51 18.1 64.6 16 -8.2 17.3
18:50 1001 29.56 830 24.51 18.1 64.7 16 -8 17.6
18:55 1001 29.56 830 24.51 18 64.4 16 -8.2 17.3
19:00 1001 29.56 830 24.51 18 64.4 15 -8.6 16.4
19:05 1001 29.56 830 24.51 18 64.3 16 -8.2 17.3
19:10 1001 29.56 830 24.51 17.8 64 16 -8 17.5
19:15 1001 29.56 830 24.51 17.7 63.8 16 -8.5 16.7
19:20 1001 29.56 830 24.51 17.6 63.7 16 -8.4 16.9
19:25 1001 29.56 830 24.51 17.7 63.8 17 -7.8 18
19:30 1001 29.56 830 24.51 17.5 63.5 19 -6.6 20.1
19:35 1001 29.56 830 24.51 17.3 63.1 19 -6.3 20.7
19:40 1001 29.56 831 24.54 17 62.6 26 -2.5 27.5
19:45 1002 29.59 831 24.54 15.3 59.6 35 -0 32
19:50 1002 29.59 831 24.54 13.8 56.8 39 0.2 32.4
19:55 1002 29.59 831 24.54 13.3 55.9 41 0.3 32.5
20:00 1002 29.59 831 24.54 13.1 55.6 41 0.2 32.4
20:05 1002 29.59 831 24.54 12.8 55 44 0.9 33.6
20:10 1002 29.59 831 24.54 12.3 54.2 46 1 33.9
20:15 1002 29.59 831 24.54 11.9 53.5 46 0.8 33.5
20:20 1002 29.59 832 24.57 11.8 53.2 47 0.9 33.6
20:25 1003 29.62 832 24.57 11.5 52.8 48 0.9 33.7
20:30 1003 29.62 833 24.6 11.4 52.5 48 0.7 33.3
20:35 1004 29.65 833 24.6 11.4 52.6 46 0.4 32.7
20:40 1004 29.65 833 24.6 11.4 52.6 47 0.5 32.9
20:45 1004 29.65 833 24.6 11.4 52.5 47 0.6 33.2
20:50 1004 29.65 834 24.63 11.3 52.3 51 1.4 34.6
20:55 1005 29.68 834 24.63 10.8 51.5 58 2.9 37.2
21:00 1004 29.65 834 24.63 10.2 50.3 61 3 37.4
21:05 1004 29.65 834 24.63 9.8 49.7 63 3.1 37.6
21:10 1005 29.68 834 24.63 9.2 48.5 67 3.3 38
21:15 1005 29.68 834 24.63 8.8 47.8 69 3.4 38.1
21:20 1005 29.68 834 24.63 8.5 47.4 69 3.3 37.9
21:25 1005 29.68 834 24.63 8.4 47 70 3.3 37.9
21:30 1005 29.68 834 24.63 8.3 46.9 71 3.4 38.2
21:35 1005 29.68 834 24.63 8.2 46.7 73 3.6 38.4
21:40 1005 29.68 834 24.63 8 46.4 73 3.5 38.4
21:45 1005 29.68 835 24.66 7.8 46 74 3.5 38.3
21:50 1006 29.71 835 24.66 7.6 45.6 76 3.6 38.5
21:55 1006 29.71 835 24.66 7.2 44.9 78 3.6 38.6
22:00 1006 29.71 835 24.66 6.8 44.2 81 3.8 38.9
22:05 1006 29.71 835 24.66 6.6 43.9 83 3.8 38.9
22:10 1006 29.71 835 24.66 6.4 43.4 83 3.7 38.6
22:15 1006 29.71 835 24.66 6.1 43.1 84 3.6 38.5
22:20 1006 29.71 835 24.66 5.9 42.7 84 3.4 38.2
22:25 1006 29.71 835 24.66 5.8 42.4 85 3.4 38.2
22:30 1006 29.71 835 24.66 5.5 42 85 3.3 37.9
22:35 1006 29.71 835 24.66 5.4 41.8 87 3.5 38.3
22:40 1006 29.71 835 24.66 5.4 41.7 87 3.5 38.3
22:45 1006 29.71 835 24.66 5.1 41.1 88 3.2 37.8
22:50 1005 29.68 835 24.66 4.8 40.6 89 3.1 37.6
22:55 1005 29.68 834 24.63 4.6 40.2 91 3.2 37.7
23:00 1005 29.68 834 24.63 4.6 40.3 90 3.2 37.7
23:05 1005 29.68 834 24.63 4.5 40.1 91 3.1 37.6
23:10 1005 29.68 834 24.63 4.2 39.6 91 2.9 37.3
23:15 1005 29.68 834 24.63 4.2 39.5 92 3 37.4
23:20 1005 29.68 834 24.63 4.1 39.4 92 3 37.4
23:25 1005 29.68 834 24.63 4.1 39.4 93 3.1 37.5
23:30 1005 29.68 834 24.63 4.2 39.6 93 3.2 37.8
23:35 1005 29.68 834 24.63 4.2 39.6 93 3.2 37.8
23:40 1005 29.68 834 24.63 4.2 39.6 93 3.3 37.9
23:45 1005 29.68 834 24.63 4.2 39.6 94 3.3 38
23:50 1005 29.68 834 24.63 3.8 38.9 94 2.9 37.3
23:55 1005 29.68 835 24.66 3.3 38 95 2.6 36.7
24:00 1005 29.68 835 24.66 3 37.4 96 2.4 36.3